sensor_id;sensor_type;location;lat;lon;timestamp;temperature;humidity
30288;DHT22;17103;48.316;11.558;2023-04-06T00:01:31;14.00;23.80
30288;DHT22;17103;48.316;11.558;2023-04-06T00:03:56;14.00;23.70
30288;DHT22;17103;48.316;11.558;2023-04-06T00:06:23;13.90;23.70
30288;DHT22;17103;48.316;11.558;2023-04-06T00:08:49;13.90;23.70
30288;DHT22;17103;48.316;11.558;2023-04-06T00:11:14;14.00;23.80
30288;DHT22;17103;48.316;11.558;2023-04-06T00:13:42;13.90;23.80
30288;DHT22;17103;48.316;11.558;2023-04-06T00:16:08;13.80;23.80
30288;DHT22;17103;48.316;11.558;2023-04-06T00:18:34;13.90;23.90
30288;DHT22;17103;48.316;11.558;2023-04-06T00:20:59;13.80;24.00
30288;DHT22;17103;48.316;11.558;2023-04-06T00:23:25;13.70;24.00
30288;DHT22;17103;48.316;11.558;2023-04-06T00:25:51;13.70;24.00
30288;DHT22;17103;48.316;11.558;2023-04-06T00:28:16;13.70;24.10
30288;DHT22;17103;48.316;11.558;2023-04-06T00:30:42;13.60;24.10
30288;DHT22;17103;48.316;11.558;2023-04-06T00:33:08;13.50;24.20
30288;DHT22;17103;48.316;11.558;2023-04-06T00:35:34;13.50;24.30
30288;DHT22;17103;48.316;11.558;2023-04-06T00:38:00;13.40;24.40
30288;DHT22;17103;48.316;11.558;2023-04-06T00:40:25;13.40;24.50
30288;DHT22;17103;48.316;11.558;2023-04-06T00:42:54;13.30;24.50
30288;DHT22;17103;48.316;11.558;2023-04-06T00:45:19;13.30;24.60
30288;DHT22;17103;48.316;11.558;2023-04-06T00:47:45;13.30;24.70
30288;DHT22;17103;48.316;11.558;2023-04-06T00:50:11;13.30;25.10
30288;DHT22;17103;48.316;11.558;2023-04-06T00:52:36;13.30;24.70
30288;DHT22;17103;48.316;11.558;2023-04-06T00:55:03;13.30;24.70
30288;DHT22;17103;48.316;11.558;2023-04-06T00:57:29;13.30;24.70
30288;DHT22;17103;48.316;11.558;2023-04-06T00:59:55;13.20;24.60
30288;DHT22;17103;48.316;11.558;2023-04-06T01:02:21;13.30;24.70
30288;DHT22;17103;48.316;11.558;2023-04-06T01:04:47;13.30;24.70
30288;DHT22;17103;48.316;11.558;2023-04-06T01:07:12;13.30;24.70
30288;DHT22;17103;48.316;11.558;2023-04-06T01:09:38;13.30;24.70
30288;DHT22;17103;48.316;11.558;2023-04-06T01:12:06;13.30;24.70
30288;DHT22;17103;48.316;11.558;2023-04-06T01:14:32;13.30;24.70
30288;DHT22;17103;48.316;11.558;2023-04-06T01:16:58;13.30;24.70
30288;DHT22;17103;48.316;11.558;2023-04-06T01:19:26;13.20;24.60
30288;DHT22;17103;48.316;11.558;2023-04-06T01:21:51;13.20;24.60
30288;DHT22;17103;48.316;11.558;2023-04-06T01:24:19;13.20;24.60
30288;DHT22;17103;48.316;11.558;2023-04-06T01:26:45;13.20;24.60
30288;DHT22;17103;48.316;11.558;2023-04-06T01:29:11;13.20;24.60
30288;DHT22;17103;48.316;11.558;2023-04-06T01:31:36;13.10;24.50
30288;DHT22;17103;48.316;11.558;2023-04-06T01:34:02;13.10;24.50
30288;DHT22;17103;48.316;11.558;2023-04-06T01:36:28;13.10;24.50
30288;DHT22;17103;48.316;11.558;2023-04-06T01:38:54;13.10;24.50
30288;DHT22;17103;48.316;11.558;2023-04-06T01:41:20;13.00;24.40
30288;DHT22;17103;48.316;11.558;2023-04-06T01:43:48;13.00;24.40
30288;DHT22;17103;48.316;11.558;2023-04-06T01:46:14;13.00;24.40
30288;DHT22;17103;48.316;11.558;2023-04-06T01:48:39;13.00;24.40
30288;DHT22;17103;48.316;11.558;2023-04-06T01:51:05;13.00;24.40
30288;DHT22;17103;48.316;11.558;2023-04-06T01:53:31;12.90;24.40
30288;DHT22;17103;48.316;11.558;2023-04-06T01:55:56;12.90;24.40
30288;DHT22;17103;48.316;11.558;2023-04-06T01:58:22;12.90;24.50
30288;DHT22;17103;48.316;11.558;2023-04-06T02:00:48;12.90;24.50
30288;DHT22;17103;48.316;11.558;2023-04-06T02:03:13;12.80;24.40
30288;DHT22;17103;48.316;11.558;2023-04-06T02:05:40;12.80;24.40
30288;DHT22;17103;48.316;11.558;2023-04-06T02:08:06;12.80;24.50
30288;DHT22;17103;48.316;11.558;2023-04-06T02:10:33;12.80;24.50
30288;DHT22;17103;48.316;11.558;2023-04-06T02:12:58;12.80;24.50
30288;DHT22;17103;48.316;11.558;2023-04-06T02:15:24;12.70;24.50
30288;DHT22;17103;48.316;11.558;2023-04-06T02:17:51;12.70;24.50
30288;DHT22;17103;48.316;11.558;2023-04-06T02:20:17;12.70;24.50
30288;DHT22;17103;48.316;11.558;2023-04-06T02:22:43;12.70;24.50
30288;DHT22;17103;48.316;11.558;2023-04-06T02:25:09;12.70;24.50
30288;DHT22;17103;48.316;11.558;2023-04-06T02:27:35;12.70;24.60
30288;DHT22;17103;48.316;11.558;2023-04-06T02:30:02;12.60;24.50
30288;DHT22;17103;48.316;11.558;2023-04-06T02:32:27;12.60;24.60
30288;DHT22;17103;48.316;11.558;2023-04-06T02:34:53;12.60;24.60
30288;DHT22;17103;48.316;11.558;2023-04-06T02:37:19;12.60;24.50
30288;DHT22;17103;48.316;11.558;2023-04-06T02:39:45;12.60;24.50
30288;DHT22;17103;48.316;11.558;2023-04-06T02:42:10;12.60;24.50
30288;DHT22;17103;48.316;11.558;2023-04-06T02:44:36;12.60;24.50
30288;DHT22;17103;48.316;11.558;2023-04-06T02:47:02;12.60;24.50
30288;DHT22;17103;48.316;11.558;2023-04-06T02:49:27;12.60;24.50
30288;DHT22;17103;48.316;11.558;2023-04-06T02:51:54;12.60;24.50
30288;DHT22;17103;48.316;11.558;2023-04-06T02:54:20;12.50;24.40
30288;DHT22;17103;48.316;11.558;2023-04-06T02:56:45;12.50;24.40
30288;DHT22;17103;48.316;11.558;2023-04-06T02:59:11;12.50;24.50
30288;DHT22;17103;48.316;11.558;2023-04-06T03:01:37;12.50;24.50
30288;DHT22;17103;48.316;11.558;2023-04-06T03:04:02;12.50;24.50
30288;DHT22;17103;48.316;11.558;2023-04-06T03:06:28;12.50;24.60
30288;DHT22;17103;48.316;11.558;2023-04-06T03:08:53;12.50;24.60
30288;DHT22;17103;48.316;11.558;2023-04-06T03:11:19;12.50;24.60
30288;DHT22;17103;48.316;11.558;2023-04-06T03:13:46;12.50;24.50
30288;DHT22;17103;48.316;11.558;2023-04-06T03:16:11;12.40;24.40
30288;DHT22;17103;48.316;11.558;2023-04-06T03:18:37;12.40;24.50
30288;DHT22;17103;48.316;11.558;2023-04-06T03:21:03;12.40;24.50
30288;DHT22;17103;48.316;11.558;2023-04-06T03:23:28;12.40;24.50
30288;DHT22;17103;48.316;11.558;2023-04-06T03:25:54;12.40;24.50
30288;DHT22;17103;48.316;11.558;2023-04-06T03:28:20;12.40;24.50
30288;DHT22;17103;48.316;11.558;2023-04-06T03:30:45;12.40;24.50
30288;DHT22;17103;48.316;11.558;2023-04-06T03:33:11;12.40;24.50
30288;DHT22;17103;48.316;11.558;2023-04-06T03:35:37;12.40;24.60
30288;DHT22;17103;48.316;11.558;2023-04-06T03:38:03;12.40;24.60
30288;DHT22;17103;48.316;11.558;2023-04-06T03:40:30;12.30;24.50
30288;DHT22;17103;48.316;11.558;2023-04-06T03:42:56;12.30;24.50
30288;DHT22;17103;48.316;11.558;2023-04-06T03:45:22;12.30;24.50
30288;DHT22;17103;48.316;11.558;2023-04-06T03:47:47;12.30;24.60
30288;DHT22;17103;48.316;11.558;2023-04-06T03:50:13;12.30;24.60
30288;DHT22;17103;48.316;11.558;2023-04-06T03:52:39;12.30;24.60
30288;DHT22;17103;48.316;11.558;2023-04-06T03:55:05;12.20;24.60
30288;DHT22;17103;48.316;11.558;2023-04-06T03:57:31;12.20;24.60
30288;DHT22;17103;48.316;11.558;2023-04-06T03:59:56;12.20;24.70
30288;DHT22;17103;48.316;11.558;2023-04-06T04:02:22;12.20;24.70
30288;DHT22;17103;48.316;11.558;2023-04-06T04:04:48;12.20;24.70
30288;DHT22;17103;48.316;11.558;2023-04-06T04:07:13;12.20;24.70
30288;DHT22;17103;48.316;11.558;2023-04-06T04:09:39;12.20;24.70
30288;DHT22;17103;48.316;11.558;2023-04-06T04:12:05;12.20;24.80
30288;DHT22;17103;48.316;11.558;2023-04-06T04:14:31;12.20;24.80
30288;DHT22;17103;48.316;11.558;2023-04-06T04:16:57;12.20;24.80
30288;DHT22;17103;48.316;11.558;2023-04-06T04:19:23;12.20;24.90
30288;DHT22;17103;48.316;11.558;2023-04-06T04:21:49;12.20;24.90
30288;DHT22;17103;48.316;11.558;2023-04-06T04:24:14;12.20;24.90
30288;DHT22;17103;48.316;11.558;2023-04-06T04:26:40;12.30;24.90
30288;DHT22;17103;48.316;11.558;2023-04-06T04:29:06;12.30;24.90
30288;DHT22;17103;48.316;11.558;2023-04-06T04:31:32;12.30;24.90
30288;DHT22;17103;48.316;11.558;2023-04-06T04:33:59;12.40;25.00
30288;DHT22;17103;48.316;11.558;2023-04-06T04:36:25;12.50;25.10
30288;DHT22;17103;48.316;11.558;2023-04-06T04:38:52;12.40;25.00
30288;DHT22;17103;48.316;11.558;2023-04-06T04:41:18;12.50;25.10
30288;DHT22;17103;48.316;11.558;2023-04-06T04:43:44;12.50;25.10
30288;DHT22;17103;48.316;11.558;2023-04-06T04:46:10;12.50;25.00
30288;DHT22;17103;48.316;11.558;2023-04-06T04:48:35;12.50;25.00
30288;DHT22;17103;48.316;11.558;2023-04-06T04:51:01;12.40;24.90
30288;DHT22;17103;48.316;11.558;2023-04-06T04:53:27;12.50;25.00
30288;DHT22;17103;48.316;11.558;2023-04-06T04:55:52;12.60;25.10
30288;DHT22;17103;48.316;11.558;2023-04-06T04:58:18;12.60;25.10
30288;DHT22;17103;48.316;11.558;2023-04-06T05:00:45;12.60;25.10
30288;DHT22;17103;48.316;11.558;2023-04-06T05:03:23;12.60;25.10
30288;DHT22;17103;48.316;11.558;2023-04-06T05:05:49;12.60;25.20
30288;DHT22;17103;48.316;11.558;2023-04-06T05:08:15;12.60;25.10
30288;DHT22;17103;48.316;11.558;2023-04-06T05:10:42;12.60;25.20
30288;DHT22;17103;48.316;11.558;2023-04-06T05:13:09;12.60;25.20
30288;DHT22;17103;48.316;11.558;2023-04-06T05:15:35;12.60;25.20
30288;DHT22;17103;48.316;11.558;2023-04-06T05:18:04;12.60;25.20
30288;DHT22;17103;48.316;11.558;2023-04-06T05:20:30;12.60;25.20
30288;DHT22;17103;48.316;11.558;2023-04-06T05:22:56;12.70;25.20
30288;DHT22;17103;48.316;11.558;2023-04-06T05:25:21;12.70;25.20
30288;DHT22;17103;48.316;11.558;2023-04-06T05:27:48;12.70;25.20
30288;DHT22;17103;48.316;11.558;2023-04-06T05:30:14;12.70;25.20
30288;DHT22;17103;48.316;11.558;2023-04-06T05:32:40;12.70;25.20
30288;DHT22;17103;48.316;11.558;2023-04-06T05:35:06;12.70;25.60
30288;DHT22;17103;48.316;11.558;2023-04-06T05:37:32;12.80;25.20
30288;DHT22;17103;48.316;11.558;2023-04-06T05:39:59;12.80;25.20
30288;DHT22;17103;48.316;11.558;2023-04-06T05:42:25;12.80;25.30
30288;DHT22;17103;48.316;11.558;2023-04-06T05:44:53;12.80;25.10
30288;DHT22;17103;48.316;11.558;2023-04-06T05:47:19;12.90;24.90
30288;DHT22;17103;48.316;11.558;2023-04-06T05:49:44;12.70;24.60
30288;DHT22;17103;48.316;11.558;2023-04-06T05:52:11;12.60;24.40
30288;DHT22;17103;48.316;11.558;2023-04-06T05:54:37;12.40;24.30
30288;DHT22;17103;48.316;11.558;2023-04-06T05:57:03;12.20;24.40
30288;DHT22;17103;48.316;11.558;2023-04-06T05:59:32;11.90;24.30
30288;DHT22;17103;48.316;11.558;2023-04-06T06:01:58;11.60;24.50
30288;DHT22;17103;48.316;11.558;2023-04-06T06:04:23;11.40;24.50
30288;DHT22;17103;48.316;11.558;2023-04-06T06:06:49;11.10;24.70
30288;DHT22;17103;48.316;11.558;2023-04-06T06:09:15;10.80;24.80
30288;DHT22;17103;48.316;11.558;2023-04-06T06:11:41;10.60;25.00
30288;DHT22;17103;48.316;11.558;2023-04-06T06:14:07;10.40;25.20
30288;DHT22;17103;48.316;11.558;2023-04-06T06:16:33;10.20;25.40
30288;DHT22;17103;48.316;11.558;2023-04-06T06:18:59;10.00;25.60
30288;DHT22;17103;48.316;11.558;2023-04-06T06:21:24;9.80;26.40
30288;DHT22;17103;48.316;11.558;2023-04-06T06:23:51;9.60;26.70
30288;DHT22;17103;48.316;11.558;2023-04-06T06:26:16;9.50;26.80
30288;DHT22;17103;48.316;11.558;2023-04-06T06:28:43;9.30;27.00
30288;DHT22;17103;48.316;11.558;2023-04-06T06:31:09;9.20;27.30
30288;DHT22;17103;48.316;11.558;2023-04-06T06:33:34;9.10;27.40
30288;DHT22;17103;48.316;11.558;2023-04-06T06:36:00;9.10;27.70
30288;DHT22;17103;48.316;11.558;2023-04-06T06:38:26;9.00;27.80
30288;DHT22;17103;48.316;11.558;2023-04-06T06:40:52;8.90;27.80
30288;DHT22;17103;48.316;11.558;2023-04-06T06:43:18;8.80;28.10
30288;DHT22;17103;48.316;11.558;2023-04-06T06:45:44;8.70;28.10
30288;DHT22;17103;48.316;11.558;2023-04-06T06:48:09;8.60;28.10
30288;DHT22;17103;48.316;11.558;2023-04-06T06:50:37;8.60;28.20
30288;DHT22;17103;48.316;11.558;2023-04-06T06:53:02;8.50;28.40
30288;DHT22;17103;48.316;11.558;2023-04-06T06:55:28;8.50;28.50
30288;DHT22;17103;48.316;11.558;2023-04-06T06:57:54;8.50;28.60
30288;DHT22;17103;48.316;11.558;2023-04-06T07:00:19;8.50;28.60
30288;DHT22;17103;48.316;11.558;2023-04-06T07:02:48;8.50;28.80
30288;DHT22;17103;48.316;11.558;2023-04-06T07:05:15;8.50;28.90
30288;DHT22;17103;48.316;11.558;2023-04-06T07:07:42;8.50;29.10
30288;DHT22;17103;48.316;11.558;2023-04-06T07:10:08;8.50;29.00
30288;DHT22;17103;48.316;11.558;2023-04-06T07:12:34;8.60;29.30
30288;DHT22;17103;48.316;11.558;2023-04-06T07:15:00;8.60;29.20
30288;DHT22;17103;48.316;11.558;2023-04-06T07:17:26;8.60;29.20
30288;DHT22;17103;48.316;11.558;2023-04-06T07:19:51;8.70;29.10
30288;DHT22;17103;48.316;11.558;2023-04-06T07:22:17;8.70;29.20
30288;DHT22;17103;48.316;11.558;2023-04-06T07:24:43;8.80;29.30
30288;DHT22;17103;48.316;11.558;2023-04-06T07:27:08;8.80;29.40
30288;DHT22;17103;48.316;11.558;2023-04-06T07:29:34;8.90;29.50
30288;DHT22;17103;48.316;11.558;2023-04-06T07:32:01;8.90;29.50
30288;DHT22;17103;48.316;11.558;2023-04-06T07:34:26;9.10;29.60
30288;DHT22;17103;48.316;11.558;2023-04-06T07:36:52;9.20;30.10
30288;DHT22;17103;48.316;11.558;2023-04-06T07:39:19;9.20;29.60
30288;DHT22;17103;48.316;11.558;2023-04-06T07:41:45;9.30;29.70
30288;DHT22;17103;48.316;11.558;2023-04-06T07:44:11;9.40;29.70
30288;DHT22;17103;48.316;11.558;2023-04-06T07:46:36;9.50;29.90
30288;DHT22;17103;48.316;11.558;2023-04-06T07:49:02;9.60;30.00
30288;DHT22;17103;48.316;11.558;2023-04-06T07:51:28;9.70;29.90
30288;DHT22;17103;48.316;11.558;2023-04-06T07:53:53;9.80;29.80
30288;DHT22;17103;48.316;11.558;2023-04-06T07:56:19;9.90;29.90
30288;DHT22;17103;48.316;11.558;2023-04-06T07:58:46;10.00;29.90
30288;DHT22;17103;48.316;11.558;2023-04-06T08:01:12;10.10;29.60
30288;DHT22;17103;48.316;11.558;2023-04-06T08:03:38;10.10;29.50
30288;DHT22;17103;48.316;11.558;2023-04-06T08:06:04;10.30;29.50
30288;DHT22;17103;48.316;11.558;2023-04-06T08:08:30;10.40;29.40
30288;DHT22;17103;48.316;11.558;2023-04-06T08:10:56;10.40;29.30
30288;DHT22;17103;48.316;11.558;2023-04-06T08:13:21;10.60;29.40
30288;DHT22;17103;48.316;11.558;2023-04-06T08:15:47;10.70;29.30
30288;DHT22;17103;48.316;11.558;2023-04-06T08:18:13;10.80;29.10
30288;DHT22;17103;48.316;11.558;2023-04-06T08:20:39;10.90;29.00
30288;DHT22;17103;48.316;11.558;2023-04-06T08:23:05;11.00;29.10
30288;DHT22;17103;48.316;11.558;2023-04-06T08:25:33;11.10;28.90
30288;DHT22;17103;48.316;11.558;2023-04-06T08:27:59;11.20;29.00
30288;DHT22;17103;48.316;11.558;2023-04-06T08:30:25;11.20;28.70
30288;DHT22;17103;48.316;11.558;2023-04-06T08:32:50;11.30;28.50
30288;DHT22;17103;48.316;11.558;2023-04-06T08:35:16;11.40;28.40
30288;DHT22;17103;48.316;11.558;2023-04-06T08:37:42;11.40;28.20
30288;DHT22;17103;48.316;11.558;2023-04-06T08:40:08;11.40;28.10
30288;DHT22;17103;48.316;11.558;2023-04-06T08:42:43;11.50;28.10
30288;DHT22;17103;48.316;11.558;2023-04-06T08:45:10;11.60;28.30
30288;DHT22;17103;48.316;11.558;2023-04-06T08:47:39;11.60;28.20
30288;DHT22;17103;48.316;11.558;2023-04-06T08:50:06;11.70;28.40
30288;DHT22;17103;48.316;11.558;2023-04-06T08:52:33;11.80;28.30
30288;DHT22;17103;48.316;11.558;2023-04-06T08:54:59;11.70;28.20
30288;DHT22;17103;48.316;11.558;2023-04-06T08:57:26;12.00;27.90
30288;DHT22;17103;48.316;11.558;2023-04-06T08:59:52;12.20;27.60
30288;DHT22;17103;48.316;11.558;2023-04-06T09:02:21;12.30;27.40
30288;DHT22;17103;48.316;11.558;2023-04-06T09:04:49;12.40;27.40
30288;DHT22;17103;48.316;11.558;2023-04-06T09:07:17;12.50;27.30
30288;DHT22;17103;48.316;11.558;2023-04-06T09:09:43;12.60;27.20
30288;DHT22;17103;48.316;11.558;2023-04-06T09:12:30;12.70;27.00
30288;DHT22;17103;48.316;11.558;2023-04-06T09:14:56;12.80;26.90
30288;DHT22;17103;48.316;11.558;2023-04-06T09:17:24;12.90;27.20
30288;DHT22;17103;48.316;11.558;2023-04-06T09:19:50;13.10;27.00
30288;DHT22;17103;48.316;11.558;2023-04-06T09:22:16;13.20;26.80
30288;DHT22;17103;48.316;11.558;2023-04-06T09:24:49;13.60;26.80
30288;DHT22;17103;48.316;11.558;2023-04-06T09:27:15;13.40;26.60
30288;DHT22;17103;48.316;11.558;2023-04-06T09:29:42;13.50;27.00
30288;DHT22;17103;48.316;11.558;2023-04-06T09:32:09;13.60;27.10
30288;DHT22;17103;48.316;11.558;2023-04-06T09:34:42;13.70;26.90
30288;DHT22;17103;48.316;11.558;2023-04-06T09:37:18;13.80;26.80
30288;DHT22;17103;48.316;11.558;2023-04-06T09:39:45;13.80;26.30
30288;DHT22;17103;48.316;11.558;2023-04-06T09:42:23;13.90;26.40
30288;DHT22;17103;48.316;11.558;2023-04-06T09:44:49;14.00;26.40
30288;DHT22;17103;48.316;11.558;2023-04-06T09:47:15;14.10;26.70
30288;DHT22;17103;48.316;11.558;2023-04-06T09:49:42;14.20;26.20
30288;DHT22;17103;48.316;11.558;2023-04-06T09:52:10;14.30;26.20
30288;DHT22;17103;48.316;11.558;2023-04-06T09:54:37;14.40;25.80
30288;DHT22;17103;48.316;11.558;2023-04-06T10:02:22;14.40;25.50
30288;DHT22;17103;48.316;11.558;2023-04-06T10:04:55;14.50;25.90
30288;DHT22;17103;48.316;11.558;2023-04-06T10:07:22;14.50;26.00
30288;DHT22;17103;48.316;11.558;2023-04-06T10:09:48;14.60;25.90
30288;DHT22;17103;48.316;11.558;2023-04-06T10:12:15;14.60;25.90
30288;DHT22;17103;48.316;11.558;2023-04-06T10:14:41;14.70;26.10
30288;DHT22;17103;48.316;11.558;2023-04-06T10:17:08;14.80;26.30
30288;DHT22;17103;48.316;11.558;2023-04-06T10:20:01;14.80;26.40
30288;DHT22;17103;48.316;11.558;2023-04-06T10:22:53;14.90;26.40
30288;DHT22;17103;48.316;11.558;2023-04-06T10:25:32;15.10;26.60
30288;DHT22;17103;48.316;11.558;2023-04-06T10:28:08;15.10;26.30
30288;DHT22;17103;48.316;11.558;2023-04-06T10:30:40;15.30;26.20
30288;DHT22;17103;48.316;11.558;2023-04-06T10:33:18;15.30;25.40
30288;DHT22;17103;48.316;11.558;2023-04-06T10:35:44;15.30;25.60
30288;DHT22;17103;48.316;11.558;2023-04-06T10:38:10;15.40;25.90
30288;DHT22;17103;48.316;11.558;2023-04-06T10:40:38;15.40;25.90
30288;DHT22;17103;48.316;11.558;2023-04-06T10:43:12;15.50;25.80
30288;DHT22;17103;48.316;11.558;2023-04-06T10:45:38;15.50;25.00
30288;DHT22;17103;48.316;11.558;2023-04-06T10:48:15;15.50;25.20
30288;DHT22;17103;48.316;11.558;2023-04-06T10:50:46;15.40;24.90
30288;DHT22;17103;48.316;11.558;2023-04-06T10:53:21;15.40;24.50
30288;DHT22;17103;48.316;11.558;2023-04-06T10:55:49;15.30;23.20
30288;DHT22;17103;48.316;11.558;2023-04-06T10:58:15;15.20;23.70
30288;DHT22;17103;48.316;11.558;2023-04-06T11:00:48;15.10;23.70
30288;DHT22;17103;48.316;11.558;2023-04-06T11:03:14;15.00;23.30
30288;DHT22;17103;48.316;11.558;2023-04-06T11:05:44;14.80;23.10
30288;DHT22;17103;48.316;11.558;2023-04-06T11:08:09;14.70;22.60
30288;DHT22;17103;48.316;11.558;2023-04-06T11:10:35;14.50;23.10
30288;DHT22;17103;48.316;11.558;2023-04-06T11:13:01;14.40;23.20
30288;DHT22;17103;48.316;11.558;2023-04-06T11:15:34;14.30;23.50
30288;DHT22;17103;48.316;11.558;2023-04-06T11:18:03;14.20;23.40
30288;DHT22;17103;48.316;11.558;2023-04-06T11:20:29;14.20;23.40
30288;DHT22;17103;48.316;11.558;2023-04-06T11:22:54;14.20;22.80
30288;DHT22;17103;48.316;11.558;2023-04-06T11:25:20;14.10;22.80
30288;DHT22;17103;48.316;11.558;2023-04-06T11:27:47;14.10;23.50
30288;DHT22;17103;48.316;11.558;2023-04-06T11:30:14;14.10;23.80
30288;DHT22;17103;48.316;11.558;2023-04-06T11:32:41;14.00;23.00
30288;DHT22;17103;48.316;11.558;2023-04-06T11:35:20;14.00;23.00
30288;DHT22;17103;48.316;11.558;2023-04-06T11:37:46;14.00;23.30
30288;DHT22;17103;48.316;11.558;2023-04-06T11:40:12;14.00;23.30
30288;DHT22;17103;48.316;11.558;2023-04-06T11:42:37;13.90;23.40
30288;DHT22;17103;48.316;11.558;2023-04-06T11:45:03;13.90;22.80
30288;DHT22;17103;48.316;11.558;2023-04-06T11:47:34;13.80;22.70
30288;DHT22;17103;48.316;11.558;2023-04-06T11:50:13;13.70;22.90
30288;DHT22;17103;48.316;11.558;2023-04-06T11:52:40;13.60;23.10
30288;DHT22;17103;48.316;11.558;2023-04-06T11:55:14;13.60;23.30
30288;DHT22;17103;48.316;11.558;2023-04-06T11:57:41;13.50;23.80
30288;DHT22;17103;48.316;11.558;2023-04-06T12:00:09;13.50;24.80
30288;DHT22;17103;48.316;11.558;2023-04-06T12:02:36;13.40;24.50
30288;DHT22;17103;48.316;11.558;2023-04-06T12:05:03;13.40;24.30
30288;DHT22;17103;48.316;11.558;2023-04-06T12:07:29;13.50;24.20
30288;DHT22;17103;48.316;11.558;2023-04-06T12:09:55;13.60;24.00
30288;DHT22;17103;48.316;11.558;2023-04-06T12:12:21;13.70;24.10
30288;DHT22;17103;48.316;11.558;2023-04-06T12:14:47;13.70;24.10
30288;DHT22;17103;48.316;11.558;2023-04-06T12:17:12;13.70;23.90
30288;DHT22;17103;48.316;11.558;2023-04-06T12:19:38;13.80;23.90
30288;DHT22;17103;48.316;11.558;2023-04-06T12:22:04;13.90;23.80
30288;DHT22;17103;48.316;11.558;2023-04-06T12:24:29;14.00;23.70
30288;DHT22;17103;48.316;11.558;2023-04-06T12:26:55;14.10;23.70
30288;DHT22;17103;48.316;11.558;2023-04-06T12:29:20;14.20;23.50
30288;DHT22;17103;48.316;11.558;2023-04-06T12:31:46;14.20;23.20
30288;DHT22;17103;48.316;11.558;2023-04-06T12:34:12;14.30;23.10
30288;DHT22;17103;48.316;11.558;2023-04-06T12:36:38;14.30;22.80
30288;DHT22;17103;48.316;11.558;2023-04-06T12:39:04;14.30;22.80
30288;DHT22;17103;48.316;11.558;2023-04-06T12:41:30;14.40;23.50
30288;DHT22;17103;48.316;11.558;2023-04-06T12:43:56;14.50;24.20
30288;DHT22;17103;48.316;11.558;2023-04-06T12:46:23;14.70;24.60
30288;DHT22;17103;48.316;11.558;2023-04-06T12:48:48;14.80;24.10
30288;DHT22;17103;48.316;11.558;2023-04-06T12:51:14;14.90;23.60
30288;DHT22;17103;48.316;11.558;2023-04-06T12:53:40;15.00;23.40
30288;DHT22;17103;48.316;11.558;2023-04-06T12:56:16;15.10;23.20
30288;DHT22;17103;48.316;11.558;2023-04-06T12:58:43;15.20;23.20
30288;DHT22;17103;48.316;11.558;2023-04-06T13:01:09;15.30;22.60
30288;DHT22;17103;48.316;11.558;2023-04-06T13:03:36;15.40;22.50
30288;DHT22;17103;48.316;11.558;2023-04-06T13:06:02;15.30;22.80
30288;DHT22;17103;48.316;11.558;2023-04-06T13:08:27;15.30;23.00
30288;DHT22;17103;48.316;11.558;2023-04-06T13:10:54;15.30;22.90
30288;DHT22;17103;48.316;11.558;2023-04-06T13:13:24;15.20;22.40
30288;DHT22;17103;48.316;11.558;2023-04-06T13:15:51;15.10;22.70
30288;DHT22;17103;48.316;11.558;2023-04-06T13:18:17;15.10;23.00
30288;DHT22;17103;48.316;11.558;2023-04-06T13:20:43;15.10;22.90
30288;DHT22;17103;48.316;11.558;2023-04-06T13:23:08;15.10;23.60
30288;DHT22;17103;48.316;11.558;2023-04-06T13:25:34;15.20;23.60
30288;DHT22;17103;48.316;11.558;2023-04-06T13:28:00;15.30;23.40
30288;DHT22;17103;48.316;11.558;2023-04-06T13:30:26;15.40;22.90
30288;DHT22;17103;48.316;11.558;2023-04-06T13:32:52;15.50;23.30
30288;DHT22;17103;48.316;11.558;2023-04-06T13:35:17;15.70;22.90
30288;DHT22;17103;48.316;11.558;2023-04-06T13:37:43;15.80;23.10
30288;DHT22;17103;48.316;11.558;2023-04-06T13:40:09;16.00;22.80
30288;DHT22;17103;48.316;11.558;2023-04-06T13:42:35;16.00;22.20
30288;DHT22;17103;48.316;11.558;2023-04-06T13:45:01;16.20;21.90
30288;DHT22;17103;48.316;11.558;2023-04-06T13:47:27;16.30;22.20
30288;DHT22;17103;48.316;11.558;2023-04-06T13:49:53;16.30;22.20
30288;DHT22;17103;48.316;11.558;2023-04-06T13:52:20;16.40;22.00
30288;DHT22;17103;48.316;11.558;2023-04-06T13:54:46;16.50;21.30
30288;DHT22;17103;48.316;11.558;2023-04-06T13:57:12;16.50;22.00
30288;DHT22;17103;48.316;11.558;2023-04-06T13:59:39;16.50;22.40
30288;DHT22;17103;48.316;11.558;2023-04-06T14:02:07;16.60;21.70
30288;DHT22;17103;48.316;11.558;2023-04-06T14:04:33;16.60;21.50
30288;DHT22;17103;48.316;11.558;2023-04-06T14:07:00;16.70;22.20
30288;DHT22;17103;48.316;11.558;2023-04-06T14:09:27;16.80;22.00
30288;DHT22;17103;48.316;11.558;2023-04-06T14:11:53;16.90;21.70
30288;DHT22;17103;48.316;11.558;2023-04-06T14:14:22;17.00;22.40
30288;DHT22;17103;48.316;11.558;2023-04-06T14:16:48;17.10;22.40
30288;DHT22;17103;48.316;11.558;2023-04-06T14:19:15;17.40;21.40
30288;DHT22;17103;48.316;11.558;2023-04-06T14:21:44;17.20;20.70
30288;DHT22;17103;48.316;11.558;2023-04-06T14:24:12;17.30;21.40
30288;DHT22;17103;48.316;11.558;2023-04-06T14:26:39;17.30;21.00
30288;DHT22;17103;48.316;11.558;2023-04-06T14:29:08;17.30;20.90
30288;DHT22;17103;48.316;11.558;2023-04-06T14:31:35;17.30;20.60
30288;DHT22;17103;48.316;11.558;2023-04-06T14:34:02;17.40;21.00
30288;DHT22;17103;48.316;11.558;2023-04-06T14:36:32;17.40;20.50
30288;DHT22;17103;48.316;11.558;2023-04-06T14:39:12;17.40;20.80
30288;DHT22;17103;48.316;11.558;2023-04-06T14:41:37;17.40;20.50
30288;DHT22;17103;48.316;11.558;2023-04-06T14:44:03;17.40;21.30
30288;DHT22;17103;48.316;11.558;2023-04-06T14:46:30;17.40;19.90
30288;DHT22;17103;48.316;11.558;2023-04-06T14:48:57;17.50;20.60
30288;DHT22;17103;48.316;11.558;2023-04-06T14:51:26;17.50;20.80
30288;DHT22;17103;48.316;11.558;2023-04-06T14:53:55;17.50;21.20
30288;DHT22;17103;48.316;11.558;2023-04-06T14:56:21;17.60;21.20
30288;DHT22;17103;48.316;11.558;2023-04-06T14:58:47;17.60;20.30
30288;DHT22;17103;48.316;11.558;2023-04-06T15:01:13;17.70;20.60
30288;DHT22;17103;48.316;11.558;2023-04-06T15:03:38;17.70;20.60
30288;DHT22;17103;48.316;11.558;2023-04-06T15:06:04;17.80;20.90
30288;DHT22;17103;48.316;11.558;2023-04-06T15:08:31;17.80;20.80
30288;DHT22;17103;48.316;11.558;2023-04-06T15:10:59;17.80;22.00
30288;DHT22;17103;48.316;11.558;2023-04-06T15:13:25;17.90;20.70
30288;DHT22;17103;48.316;11.558;2023-04-06T15:15:51;18.00;20.90
30288;DHT22;17103;48.316;11.558;2023-04-06T15:18:17;18.00;20.20
30288;DHT22;17103;48.316;11.558;2023-04-06T15:20:43;18.10;20.10